Portada
METAR-TAF:

METAR-TAF

Aeropuertos :

Meiringen, Suiza

latitud: 46-44-25N, longitud: 8-06-36E, altitud: 577 m

Observación

El informe se hizo hace 27 minutos, a las 12:20 UTC
Viento 11 kt con dirección variable con ráfagas de 22 kt
Temperatura 5°C
Humedad 87%
Presión 1029 hPa
Visibilidad 10 km o más
Escasas nubes a una altura de 1100 ft
Cielo nuboso a una altura de 2600 ft

METAR: LSMM 271220Z AUTO VRB11G22KT 9999NDV R10/1400N R28/P2000U FEW011 BKN026 05/03 Q1029 RMK

Hora: 13:47 (12:47 UTC)


TAF: falta

Observaciones y pronósticos meteorológicos de más de 4000 aeropuertos (mensajes METAR y TAF).

Los puntos amarillos y rojos representan las estaciones disponibles.

Ponga el ratón en el punto deseado para ver el nombre de la estación.

Haga clic para ver las observaciones y los pronósticos meteorológicos.

Para cambiar el mapa : haga clic en los botones verdes con una cruz de color negro para hacer un zoom, en el botón verde con un guión para alejar o en las flechas verdes para mapas adyacentes.


METAR-TAF: